sensor_id;sensor_type;location;lat;lon;timestamp;pressure;altitude;pressure_sealevel;temperature;humidity
69127;BME280;56688;50.234;19.292;2023-02-14T00:00:30;100325.05;;;4.35;79.89
69127;BME280;56688;50.234;19.292;2023-02-14T00:02:56;100324.98;;;4.33;79.94
69127;BME280;56688;50.234;19.292;2023-02-14T00:05:23;100319.91;;;4.32;80.12
69127;BME280;56688;50.234;19.292;2023-02-14T00:07:50;100321.13;;;4.33;80.20
69127;BME280;56688;50.234;19.292;2023-02-14T00:10:17;100321.60;;;4.34;80.25
69127;BME280;56688;50.234;19.292;2023-02-14T00:12:44;100316.54;;;4.35;80.36
69127;BME280;56688;50.234;19.292;2023-02-14T00:15:11;100312.56;;;4.34;79.89
69127;BME280;56688;50.234;19.292;2023-02-14T00:17:55;100308.38;;;4.31;80.24
69127;BME280;56688;50.234;19.292;2023-02-14T00:20:26;100313.25;;;4.29;80.16
69127;BME280;56688;50.234;19.292;2023-02-14T00:22:53;100314.33;;;4.26;79.94
69127;BME280;56688;50.234;19.292;2023-02-14T00:25:20;100318.29;;;4.23;80.08
69127;BME280;56688;50.234;19.292;2023-02-14T00:27:47;100316.49;;;4.23;80.57
69127;BME280;56688;50.234;19.292;2023-02-14T00:30:14;100321.80;;;4.28;80.84
69127;BME280;56688;50.234;19.292;2023-02-14T00:32:41;100322.79;;;4.32;80.34
69127;BME280;56688;50.234;19.292;2023-02-14T00:35:09;100324.27;;;4.33;80.47
69127;BME280;56688;50.234;19.292;2023-02-14T00:37:39;100321.96;;;4.33;80.30
69127;BME280;56688;50.234;19.292;2023-02-14T00:40:07;100327.11;;;4.33;79.99
69127;BME280;56688;50.234;19.292;2023-02-14T00:42:34;100329.00;;;4.31;79.76
69127;BME280;56688;50.234;19.292;2023-02-14T00:45:01;100327.50;;;4.27;79.77
69127;BME280;56688;50.234;19.292;2023-02-14T00:47:27;100326.23;;;4.23;79.48
69127;BME280;56688;50.234;19.292;2023-02-14T00:49:54;100324.66;;;4.19;79.43
69127;BME280;56688;50.234;19.292;2023-02-14T00:52:24;100324.50;;;4.17;79.46
69127;BME280;56688;50.234;19.292;2023-02-14T00:54:50;100325.02;;;4.17;79.50
69127;BME280;56688;50.234;19.292;2023-02-14T00:57:17;100319.86;;;4.20;79.41
69127;BME280;56688;50.234;19.292;2023-02-14T00:59:44;100321.98;;;4.23;79.49
69127;BME280;56688;50.234;19.292;2023-02-14T01:02:11;100320.16;;;4.24;78.68
69127;BME280;56688;50.234;19.292;2023-02-14T01:04:38;100316.70;;;4.23;78.49
69127;BME280;56688;50.234;19.292;2023-02-14T01:07:05;100318.09;;;4.20;78.30
69127;BME280;56688;50.234;19.292;2023-02-14T01:09:33;100313.92;;;4.17;78.13
69127;BME280;56688;50.234;19.292;2023-02-14T01:12:01;100311.34;;;4.16;77.61
69127;BME280;56688;50.234;19.292;2023-02-14T01:14:28;100303.80;;;4.15;77.14
69127;BME280;56688;50.234;19.292;2023-02-14T01:16:54;100302.73;;;4.15;77.34
69127;BME280;56688;50.234;19.292;2023-02-14T01:19:23;100306.05;;;4.18;77.39
69127;BME280;56688;50.234;19.292;2023-02-14T01:21:50;100301.94;;;4.19;77.32
69127;BME280;56688;50.234;19.292;2023-02-14T01:24:16;100299.25;;;4.17;76.88
69127;BME280;56688;50.234;19.292;2023-02-14T01:26:43;100299.70;;;4.16;76.68
69127;BME280;56688;50.234;19.292;2023-02-14T01:29:10;100301.81;;;4.13;76.79
69127;BME280;56688;50.234;19.292;2023-02-14T01:31:43;100300.71;;;4.13;76.69
69127;BME280;56688;50.234;19.292;2023-02-14T01:34:10;100303.10;;;4.15;76.66
69127;BME280;56688;50.234;19.292;2023-02-14T01:36:38;100303.61;;;4.18;76.66
69127;BME280;56688;50.234;19.292;2023-02-14T01:39:10;100297.77;;;4.18;76.47
69127;BME280;56688;50.234;19.292;2023-02-14T01:41:40;100299.04;;;4.17;76.47
69127;BME280;56688;50.234;19.292;2023-02-14T01:46:43;100295.91;;;4.17;76.33
69127;BME280;56688;50.234;19.292;2023-02-14T01:49:14;100294.83;;;4.15;76.21
69127;BME280;56688;50.234;19.292;2023-02-14T01:51:56;100294.36;;;4.14;76.33
69127;BME280;56688;50.234;19.292;2023-02-14T01:54:31;100297.27;;;4.12;76.22
69127;BME280;56688;50.234;19.292;2023-02-14T01:57:02;100294.58;;;4.13;76.62
69127;BME280;56688;50.234;19.292;2023-02-14T01:59:36;100295.16;;;4.15;76.54
69127;BME280;56688;50.234;19.292;2023-02-14T02:02:05;100292.27;;;4.16;76.63
69127;BME280;56688;50.234;19.292;2023-02-14T02:04:37;100287.23;;;4.15;76.26
69127;BME280;56688;50.234;19.292;2023-02-14T02:07:06;100283.16;;;4.12;76.26
69127;BME280;56688;50.234;19.292;2023-02-14T02:09:43;100280.21;;;4.09;76.44
69127;BME280;56688;50.234;19.292;2023-02-14T02:12:12;100279.98;;;4.05;76.78
69127;BME280;56688;50.234;19.292;2023-02-14T02:14:40;100283.40;;;4.01;76.78
69127;BME280;56688;50.234;19.292;2023-02-14T02:17:13;100287.86;;;4.01;77.19
69127;BME280;56688;50.234;19.292;2023-02-14T02:19:59;100290.06;;;4.02;77.23
69127;BME280;56688;50.234;19.292;2023-02-14T02:22:49;100290.37;;;4.05;77.18
69127;BME280;56688;50.234;19.292;2023-02-14T02:28:40;100291.88;;;4.09;77.53
69127;BME280;56688;50.234;19.292;2023-02-14T02:55:56;100287.11;;;3.96;77.55
69127;BME280;56688;50.234;19.292;2023-02-14T02:58:54;100284.70;;;3.93;77.80
69127;BME280;56688;50.234;19.292;2023-02-14T03:01:28;100286.70;;;3.89;78.18
69127;BME280;56688;50.234;19.292;2023-02-14T03:03:59;100288.90;;;3.90;78.32
69127;BME280;56688;50.234;19.292;2023-02-14T03:06:45;100291.29;;;3.88;78.22
69127;BME280;56688;50.234;19.292;2023-02-14T03:11:48;100279.17;;;3.88;78.32
69127;BME280;56688;50.234;19.292;2023-02-14T03:14:30;100276.36;;;3.85;78.07
69127;BME280;56688;50.234;19.292;2023-02-14T03:20:00;100282.69;;;3.83;78.26
69127;BME280;56688;50.234;19.292;2023-02-14T03:25:35;100285.99;;;3.83;78.44
69127;BME280;56688;50.234;19.292;2023-02-14T03:28:16;100282.57;;;3.87;78.40
69127;BME280;56688;50.234;19.292;2023-02-14T03:33:22;100286.23;;;3.90;78.26
69127;BME280;56688;50.234;19.292;2023-02-14T03:38:35;100299.59;;;3.91;78.19
69127;BME280;56688;50.234;19.292;2023-02-14T03:41:11;100296.33;;;3.93;78.10
69127;BME280;56688;50.234;19.292;2023-02-14T03:43:45;100292.54;;;3.94;77.92
69127;BME280;56688;50.234;19.292;2023-02-14T03:46:18;100295.19;;;3.94;77.67
69127;BME280;56688;50.234;19.292;2023-02-14T03:48:47;100292.24;;;3.93;77.88
69127;BME280;56688;50.234;19.292;2023-02-14T03:51:17;100288.44;;;3.92;77.88
69127;BME280;56688;50.234;19.292;2023-02-14T03:53:47;100291.85;;;3.91;77.91
69127;BME280;56688;50.234;19.292;2023-02-14T03:56:22;100289.91;;;3.88;77.67
69127;BME280;56688;50.234;19.292;2023-02-14T03:58:55;100301.95;;;3.87;77.69
69127;BME280;56688;50.234;19.292;2023-02-14T04:01:29;100301.92;;;3.82;77.72
69127;BME280;56688;50.234;19.292;2023-02-14T04:03:59;100301.55;;;3.82;77.68
69127;BME280;56688;50.234;19.292;2023-02-14T04:06:26;100295.69;;;3.81;77.65
69127;BME280;56688;50.234;19.292;2023-02-14T04:08:53;100294.95;;;3.81;77.58
69127;BME280;56688;50.234;19.292;2023-02-14T04:11:20;100294.48;;;3.83;77.70
69127;BME280;56688;50.234;19.292;2023-02-14T04:13:50;100296.70;;;3.87;77.80
69127;BME280;56688;50.234;19.292;2023-02-14T04:16:17;100297.73;;;3.89;77.57
69127;BME280;56688;50.234;19.292;2023-02-14T04:18:43;100300.19;;;3.93;77.41
69127;BME280;56688;50.234;19.292;2023-02-14T04:21:26;100300.98;;;3.94;77.30
69127;BME280;56688;50.234;19.292;2023-02-14T04:23:53;100309.15;;;3.94;77.09
69127;BME280;56688;50.234;19.292;2023-02-14T04:26:20;100301.14;;;3.89;76.92
69127;BME280;56688;50.234;19.292;2023-02-14T04:28:46;100301.55;;;3.88;77.05
69127;BME280;56688;50.234;19.292;2023-02-14T04:31:13;100302.13;;;3.85;76.90
69127;BME280;56688;50.234;19.292;2023-02-14T04:33:40;100302.29;;;3.85;77.10
69127;BME280;56688;50.234;19.292;2023-02-14T04:36:07;100295.36;;;3.86;77.01
69127;BME280;56688;50.234;19.292;2023-02-14T04:38:34;100296.55;;;3.86;76.91
69127;BME280;56688;50.234;19.292;2023-02-14T04:41:01;100291.41;;;3.89;76.90
69127;BME280;56688;50.234;19.292;2023-02-14T04:43:28;100298.09;;;3.90;76.52
69127;BME280;56688;50.234;19.292;2023-02-14T04:45:55;100299.29;;;3.87;76.53
69127;BME280;56688;50.234;19.292;2023-02-14T04:48:22;100302.54;;;3.84;76.60
69127;BME280;56688;50.234;19.292;2023-02-14T04:50:53;100310.45;;;3.79;76.70
69127;BME280;56688;50.234;19.292;2023-02-14T04:53:21;100311.89;;;3.73;76.57
69127;BME280;56688;50.234;19.292;2023-02-14T04:55:48;100316.83;;;3.68;76.63
69127;BME280;56688;50.234;19.292;2023-02-14T04:58:16;100314.09;;;3.61;76.93
69127;BME280;56688;50.234;19.292;2023-02-14T05:00:43;100310.83;;;3.59;76.89
69127;BME280;56688;50.234;19.292;2023-02-14T05:03:10;100310.27;;;3.60;77.00
69127;BME280;56688;50.234;19.292;2023-02-14T05:05:37;100308.04;;;3.59;76.96
69127;BME280;56688;50.234;19.292;2023-02-14T05:08:03;100316.54;;;3.61;76.97
69127;BME280;56688;50.234;19.292;2023-02-14T05:10:30;100313.22;;;3.58;76.81
69127;BME280;56688;50.234;19.292;2023-02-14T05:12:57;100314.58;;;3.59;77.02
69127;BME280;56688;50.234;19.292;2023-02-14T05:15:24;100316.76;;;3.55;76.76
69127;BME280;56688;50.234;19.292;2023-02-14T05:17:51;100315.08;;;3.51;76.80
69127;BME280;56688;50.234;19.292;2023-02-14T05:20:17;100311.67;;;3.49;76.90
69127;BME280;56688;50.234;19.292;2023-02-14T05:22:44;100317.11;;;3.50;77.24
69127;BME280;56688;50.234;19.292;2023-02-14T05:25:11;100318.95;;;3.51;76.94
69127;BME280;56688;50.234;19.292;2023-02-14T05:27:38;100319.94;;;3.50;76.92
69127;BME280;56688;50.234;19.292;2023-02-14T05:30:05;100327.86;;;3.50;77.05
69127;BME280;56688;50.234;19.292;2023-02-14T05:32:33;100327.13;;;3.50;77.04
69127;BME280;56688;50.234;19.292;2023-02-14T05:35:00;100328.22;;;3.49;77.11
69127;BME280;56688;50.234;19.292;2023-02-14T05:37:27;100323.92;;;3.45;77.22
69127;BME280;56688;50.234;19.292;2023-02-14T05:39:54;100330.11;;;3.42;77.54
69127;BME280;56688;50.234;19.292;2023-02-14T05:42:20;100325.75;;;3.39;77.70
69127;BME280;56688;50.234;19.292;2023-02-14T05:44:47;100326.55;;;3.37;77.84
69127;BME280;56688;50.234;19.292;2023-02-14T05:47:14;100333.40;;;3.38;78.02
69127;BME280;56688;50.234;19.292;2023-02-14T05:49:41;100340.63;;;3.38;77.95
69127;BME280;56688;50.234;19.292;2023-02-14T05:52:08;100335.77;;;3.36;78.23
69127;BME280;56688;50.234;19.292;2023-02-14T05:54:35;100341.27;;;3.35;78.25
69127;BME280;56688;50.234;19.292;2023-02-14T05:57:02;100345.04;;;3.34;78.39
69127;BME280;56688;50.234;19.292;2023-02-14T05:59:29;100348.02;;;3.32;78.38
69127;BME280;56688;50.234;19.292;2023-02-14T06:01:55;100346.24;;;3.27;78.50
69127;BME280;56688;50.234;19.292;2023-02-14T06:04:22;100351.27;;;3.25;78.65
69127;BME280;56688;50.234;19.292;2023-02-14T06:06:49;100350.19;;;3.25;78.75
69127;BME280;56688;50.234;19.292;2023-02-14T06:09:16;100349.39;;;3.27;78.94
69127;BME280;56688;50.234;19.292;2023-02-14T06:11:45;100351.25;;;3.28;79.11
69127;BME280;56688;50.234;19.292;2023-02-14T06:14:12;100351.14;;;3.30;78.93
69127;BME280;56688;50.234;19.292;2023-02-14T06:16:39;100357.66;;;3.35;78.83
69127;BME280;56688;50.234;19.292;2023-02-14T06:19:05;100355.43;;;3.34;78.57
69127;BME280;56688;50.234;19.292;2023-02-14T06:21:32;100355.80;;;3.32;78.70
69127;BME280;56688;50.234;19.292;2023-02-14T06:23:59;100356.37;;;3.28;78.75
69127;BME280;56688;50.234;19.292;2023-02-14T06:26:26;100359.17;;;3.26;78.86
69127;BME280;56688;50.234;19.292;2023-02-14T06:28:54;100366.93;;;3.25;78.88
69127;BME280;56688;50.234;19.292;2023-02-14T06:31:22;100361.36;;;3.27;79.05
69127;BME280;56688;50.234;19.292;2023-02-14T06:33:50;100361.05;;;3.29;78.85
69127;BME280;56688;50.234;19.292;2023-02-14T06:36:18;100362.08;;;3.30;79.00
69127;BME280;56688;50.234;19.292;2023-02-14T06:38:45;100366.40;;;3.31;79.05
69127;BME280;56688;50.234;19.292;2023-02-14T06:41:14;100363.70;;;3.32;78.98
69127;BME280;56688;50.234;19.292;2023-02-14T06:43:44;100363.67;;;3.32;78.93
69127;BME280;56688;50.234;19.292;2023-02-14T06:46:11;100364.73;;;3.32;78.86
69127;BME280;56688;50.234;19.292;2023-02-14T06:48:38;100366.63;;;3.30;78.92
69127;BME280;56688;50.234;19.292;2023-02-14T06:51:05;100367.41;;;3.31;78.80
69127;BME280;56688;50.234;19.292;2023-02-14T06:53:32;100368.69;;;3.34;78.86
69127;BME280;56688;50.234;19.292;2023-02-14T06:56:00;100371.41;;;3.41;79.12
69127;BME280;56688;50.234;19.292;2023-02-14T06:58:27;100373.84;;;3.47;78.98
69127;BME280;56688;50.234;19.292;2023-02-14T07:00:55;100367.84;;;3.45;78.62
69127;BME280;56688;50.234;19.292;2023-02-14T07:03:25;100368.95;;;3.44;78.76
69127;BME280;56688;50.234;19.292;2023-02-14T07:05:52;100366.35;;;3.46;78.74
69127;BME280;56688;50.234;19.292;2023-02-14T07:08:20;100366.60;;;3.47;78.54
69127;BME280;56688;50.234;19.292;2023-02-14T07:10:47;100365.56;;;3.47;78.63
69127;BME280;56688;50.234;19.292;2023-02-14T07:13:15;100367.73;;;3.46;78.65
69127;BME280;56688;50.234;19.292;2023-02-14T07:15:42;100366.84;;;3.52;78.85
69127;BME280;56688;50.234;19.292;2023-02-14T07:18:09;100368.97;;;3.60;78.74
69127;BME280;56688;50.234;19.292;2023-02-14T07:20:37;100365.48;;;3.62;78.70
69127;BME280;56688;50.234;19.292;2023-02-14T07:23:04;100374.50;;;3.67;78.51
69127;BME280;56688;50.234;19.292;2023-02-14T07:25:31;100375.46;;;3.71;78.35
69127;BME280;56688;50.234;19.292;2023-02-14T07:27:57;100374.17;;;3.72;78.11
69127;BME280;56688;50.234;19.292;2023-02-14T07:30:24;100377.02;;;3.74;78.09
69127;BME280;56688;50.234;19.292;2023-02-14T07:32:51;100376.91;;;3.81;78.25
69127;BME280;56688;50.234;19.292;2023-02-14T07:35:18;100372.36;;;3.89;78.16
69127;BME280;56688;50.234;19.292;2023-02-14T07:37:45;100374.19;;;3.96;77.50
69127;BME280;56688;50.234;19.292;2023-02-14T07:40:12;100382.11;;;4.02;77.47
69127;BME280;56688;50.234;19.292;2023-02-14T07:42:41;100379.27;;;4.04;77.14
69127;BME280;56688;50.234;19.292;2023-02-14T07:45:09;100385.50;;;4.06;76.56
69127;BME280;56688;50.234;19.292;2023-02-14T07:47:49;100382.64;;;4.07;76.81
69127;BME280;56688;50.234;19.292;2023-02-14T07:50:16;100383.53;;;4.09;76.52
69127;BME280;56688;50.234;19.292;2023-02-14T07:52:43;100377.52;;;4.15;76.60
69127;BME280;56688;50.234;19.292;2023-02-14T07:55:10;100379.54;;;4.22;76.41
69127;BME280;56688;50.234;19.292;2023-02-14T07:57:37;100374.27;;;4.25;75.98
69127;BME280;56688;50.234;19.292;2023-02-14T08:00:05;100376.75;;;4.32;75.83
69127;BME280;56688;50.234;19.292;2023-02-14T08:02:37;100374.64;;;4.37;75.52
69127;BME280;56688;50.234;19.292;2023-02-14T08:05:04;100373.83;;;4.44;75.26
69127;BME280;56688;50.234;19.292;2023-02-14T08:07:31;100373.46;;;4.52;75.02
69127;BME280;56688;50.234;19.292;2023-02-14T08:09:58;100375.30;;;4.56;74.91
69127;BME280;56688;50.234;19.292;2023-02-14T08:12:25;100379.85;;;4.54;74.43
69127;BME280;56688;50.234;19.292;2023-02-14T08:15:07;100379.04;;;4.53;74.59
69127;BME280;56688;50.234;19.292;2023-02-14T08:17:55;100377.75;;;4.56;74.85
69127;BME280;56688;50.234;19.292;2023-02-14T08:20:22;100379.17;;;4.59;74.34
69127;BME280;56688;50.234;19.292;2023-02-14T08:22:49;100378.80;;;4.64;74.58
69127;BME280;56688;50.234;19.292;2023-02-14T08:25:16;100370.98;;;4.67;74.31
69127;BME280;56688;50.234;19.292;2023-02-14T08:27:43;100373.14;;;4.74;74.11
69127;BME280;56688;50.234;19.292;2023-02-14T08:30:10;100379.73;;;4.84;74.10
69127;BME280;56688;50.234;19.292;2023-02-14T08:32:37;100382.23;;;4.88;73.48
69127;BME280;56688;50.234;19.292;2023-02-14T08:35:06;100382.83;;;4.93;73.17
69127;BME280;56688;50.234;19.292;2023-02-14T08:37:33;100387.52;;;4.99;73.28
69127;BME280;56688;50.234;19.292;2023-02-14T08:39:59;100391.30;;;5.03;73.08
69127;BME280;56688;50.234;19.292;2023-02-14T08:42:27;100395.33;;;5.09;73.13
69127;BME280;56688;50.234;19.292;2023-02-14T08:44:53;100392.08;;;5.10;72.72
69127;BME280;56688;50.234;19.292;2023-02-14T08:47:20;100399.63;;;5.11;73.06
69127;BME280;56688;50.234;19.292;2023-02-14T08:49:47;100402.61;;;5.20;72.99
69127;BME280;56688;50.234;19.292;2023-02-14T08:52:14;100406.32;;;5.28;72.61
69127;BME280;56688;50.234;19.292;2023-02-14T08:54:40;100404.95;;;5.27;72.27
69127;BME280;56688;50.234;19.292;2023-02-14T08:57:07;100402.75;;;5.26;72.36
69127;BME280;56688;50.234;19.292;2023-02-14T08:59:34;100402.89;;;5.26;72.44
69127;BME280;56688;50.234;19.292;2023-02-14T09:02:01;100403.26;;;5.29;72.43
69127;BME280;56688;50.234;19.292;2023-02-14T09:04:28;100405.92;;;5.36;72.10
69127;BME280;56688;50.234;19.292;2023-02-14T09:06:55;100403.06;;;5.44;72.06
69127;BME280;56688;50.234;19.292;2023-02-14T09:09:22;100403.92;;;5.52;71.74
69127;BME280;56688;50.234;19.292;2023-02-14T09:11:48;100405.52;;;5.62;71.20
69127;BME280;56688;50.234;19.292;2023-02-14T09:14:15;100407.19;;;5.65;70.73
69127;BME280;56688;50.234;19.292;2023-02-14T09:16:42;100412.10;;;5.71;70.75
69127;BME280;56688;50.234;19.292;2023-02-14T09:19:09;100408.34;;;5.79;70.43
69127;BME280;56688;50.234;19.292;2023-02-14T09:21:36;100405.10;;;5.84;70.76
69127;BME280;56688;50.234;19.292;2023-02-14T09:24:03;100405.46;;;5.92;70.45
69127;BME280;56688;50.234;19.292;2023-02-14T09:26:30;100406.97;;;6.03;70.36
69127;BME280;56688;50.234;19.292;2023-02-14T09:28:58;100405.02;;;6.18;69.95
69127;BME280;56688;50.234;19.292;2023-02-14T09:31:24;100403.20;;;6.32;69.21
69127;BME280;56688;50.234;19.292;2023-02-14T09:33:51;100406.75;;;6.44;68.65
69127;BME280;56688;50.234;19.292;2023-02-14T09:36:18;100410.04;;;6.54;68.86
69127;BME280;56688;50.234;19.292;2023-02-14T09:38:46;100414.96;;;6.64;68.36
69127;BME280;56688;50.234;19.292;2023-02-14T09:44:15;100409.11;;;6.73;68.15
69127;BME280;56688;50.234;19.292;2023-02-14T09:46:51;100409.71;;;6.84;68.04
69127;BME280;56688;50.234;19.292;2023-02-14T09:49:31;100407.73;;;6.98;67.39
69127;BME280;56688;50.234;19.292;2023-02-14T09:52:01;100405.30;;;7.13;67.23
69127;BME280;56688;50.234;19.292;2023-02-14T09:54:29;100406.44;;;7.21;66.33
69127;BME280;56688;50.234;19.292;2023-02-14T10:05:24;100409.98;;;7.44;65.62
69127;BME280;56688;50.234;19.292;2023-02-14T10:10:42;100406.85;;;7.47;65.51
69127;BME280;56688;50.234;19.292;2023-02-14T10:13:17;100406.70;;;7.52;64.83
69127;BME280;56688;50.234;19.292;2023-02-14T10:15:49;100400.20;;;7.49;64.54
69127;BME280;56688;50.234;19.292;2023-02-14T10:18:31;100400.88;;;7.40;64.39
69127;BME280;56688;50.234;19.292;2023-02-14T10:21:01;100405.86;;;7.36;64.70
69127;BME280;56688;50.234;19.292;2023-02-14T10:26:04;100401.50;;;7.39;65.19
69127;BME280;56688;50.234;19.292;2023-02-14T10:28:48;100403.98;;;7.44;64.06
69127;BME280;56688;50.234;19.292;2023-02-14T10:33:52;100402.02;;;7.33;63.82
69127;BME280;56688;50.234;19.292;2023-02-14T10:46:35;100396.09;;;7.22;64.88
69127;BME280;56688;50.234;19.292;2023-02-14T10:54:52;100390.83;;;7.04;64.35
69127;BME280;56688;50.234;19.292;2023-02-14T10:57:27;100396.60;;;7.02;64.18
69127;BME280;56688;50.234;19.292;2023-02-14T11:00:00;100395.70;;;7.00;64.42
69127;BME280;56688;50.234;19.292;2023-02-14T11:02:37;100396.96;;;7.00;64.05
69127;BME280;56688;50.234;19.292;2023-02-14T11:05:21;100392.83;;;7.07;64.45
69127;BME280;56688;50.234;19.292;2023-02-14T11:07:49;100389.16;;;7.14;64.04
69127;BME280;56688;50.234;19.292;2023-02-14T11:10:16;100384.83;;;7.19;63.63
69127;BME280;56688;50.234;19.292;2023-02-14T11:12:45;100386.10;;;7.21;63.32
69127;BME280;56688;50.234;19.292;2023-02-14T11:17:40;100380.55;;;7.26;62.95
69127;BME280;56688;50.234;19.292;2023-02-14T11:20:25;100375.81;;;7.28;63.05
69127;BME280;56688;50.234;19.292;2023-02-14T11:22:53;100374.75;;;7.30;62.93
69127;BME280;56688;50.234;19.292;2023-02-14T11:27:50;100375.39;;;7.17;63.25
69127;BME280;56688;50.234;19.292;2023-02-14T11:30:21;100372.30;;;7.12;63.42
69127;BME280;56688;50.234;19.292;2023-02-14T11:32:51;100368.61;;;7.05;62.90
69127;BME280;56688;50.234;19.292;2023-02-14T11:35:25;100368.49;;;6.99;63.51
69127;BME280;56688;50.234;19.292;2023-02-14T11:37:54;100366.75;;;6.99;63.60
69127;BME280;56688;50.234;19.292;2023-02-14T11:40:37;100365.58;;;6.95;64.32
69127;BME280;56688;50.234;19.292;2023-02-14T11:45:43;100363.83;;;7.00;64.02
69127;BME280;56688;50.234;19.292;2023-02-14T11:48:26;100363.33;;;7.00;63.77
69127;BME280;56688;50.234;19.292;2023-02-14T11:51:06;100364.14;;;7.03;63.28
69127;BME280;56688;50.234;19.292;2023-02-14T11:53:43;100361.20;;;7.07;64.19
69127;BME280;56688;50.234;19.292;2023-02-14T11:56:11;100360.92;;;7.10;63.77
69127;BME280;56688;50.234;19.292;2023-02-14T11:58:47;100359.05;;;7.11;63.70
69127;BME280;56688;50.234;19.292;2023-02-14T12:01:32;100358.30;;;7.09;63.90
69127;BME280;56688;50.234;19.292;2023-02-14T12:04:03;100353.08;;;7.10;64.21
69127;BME280;56688;50.234;19.292;2023-02-14T12:06:34;100348.39;;;7.18;64.00
69127;BME280;56688;50.234;19.292;2023-02-14T12:11:54;100344.80;;;7.32;62.85
69127;BME280;56688;50.234;19.292;2023-02-14T12:14:24;100349.23;;;7.28;62.70
69127;BME280;56688;50.234;19.292;2023-02-14T12:16:59;100343.42;;;7.16;63.19
69127;BME280;56688;50.234;19.292;2023-02-14T12:19:36;100342.41;;;7.11;63.44
69127;BME280;56688;50.234;19.292;2023-02-14T12:22:10;100337.43;;;7.11;63.45
69127;BME280;56688;50.234;19.292;2023-02-14T12:27:49;100330.09;;;7.12;63.71
69127;BME280;56688;50.234;19.292;2023-02-14T12:30:20;100328.02;;;7.11;63.46
69127;BME280;56688;50.234;19.292;2023-02-14T12:32:50;100323.50;;;7.06;63.42
69127;BME280;56688;50.234;19.292;2023-02-14T12:37:59;100318.73;;;7.01;63.83
69127;BME280;56688;50.234;19.292;2023-02-14T12:40:40;100318.02;;;7.08;63.56
69127;BME280;56688;50.234;19.292;2023-02-14T12:56:53;100309.55;;;7.12;63.63
69127;BME280;56688;50.234;19.292;2023-02-14T13:10:57;100296.23;;;7.01;63.40
69127;BME280;56688;50.234;19.292;2023-02-14T13:13:36;100295.80;;;7.06;63.66
69127;BME280;56688;50.234;19.292;2023-02-14T13:18:57;100294.83;;;7.01;63.44
69127;BME280;56688;50.234;19.292;2023-02-14T13:21:28;100292.57;;;6.96;63.08
69127;BME280;56688;50.234;19.292;2023-02-14T13:24:11;100293.95;;;6.92;63.39
69127;BME280;56688;50.234;19.292;2023-02-14T13:26:43;100291.67;;;6.89;63.63
69127;BME280;56688;50.234;19.292;2023-02-14T13:29:18;100290.31;;;6.86;63.76
69127;BME280;56688;50.234;19.292;2023-02-14T13:31:46;100290.63;;;6.87;63.75
69127;BME280;56688;50.234;19.292;2023-02-14T13:36:57;100291.17;;;6.95;63.43
69127;BME280;56688;50.234;19.292;2023-02-14T13:39:33;100293.17;;;6.97;63.57
69127;BME280;56688;50.234;19.292;2023-02-14T13:42:04;100289.75;;;6.93;63.33
69127;BME280;56688;50.234;19.292;2023-02-14T13:44:41;100288.52;;;6.84;63.82
69127;BME280;56688;50.234;19.292;2023-02-14T13:47:19;100291.00;;;6.78;64.62
69127;BME280;56688;50.234;19.292;2023-02-14T13:49:50;100289.48;;;6.77;64.10
69127;BME280;56688;50.234;19.292;2023-02-14T13:52:39;100283.44;;;6.79;63.73
69127;BME280;56688;50.234;19.292;2023-02-14T13:55:12;100288.86;;;6.73;63.69
69127;BME280;56688;50.234;19.292;2023-02-14T13:57:41;100287.98;;;6.69;63.90
69127;BME280;56688;50.234;19.292;2023-02-14T14:00:34;100286.07;;;6.61;63.89
69127;BME280;56688;50.234;19.292;2023-02-14T14:05:47;100282.99;;;6.58;64.32
69127;BME280;56688;50.234;19.292;2023-02-14T14:08:34;100282.69;;;6.66;64.69
69127;BME280;56688;50.234;19.292;2023-02-14T14:11:05;100284.47;;;6.68;64.04
69127;BME280;56688;50.234;19.292;2023-02-14T14:21:33;100283.61;;;6.45;65.12
69127;BME280;56688;50.234;19.292;2023-02-14T14:26:35;100283.85;;;6.35;65.30
69127;BME280;56688;50.234;19.292;2023-02-14T14:29:10;100281.09;;;6.37;65.19
69127;BME280;56688;50.234;19.292;2023-02-14T14:31:39;100280.16;;;6.37;65.54
69127;BME280;56688;50.234;19.292;2023-02-14T14:34:15;100279.64;;;6.39;65.55
69127;BME280;56688;50.234;19.292;2023-02-14T14:36:44;100280.13;;;6.40;65.42
69127;BME280;56688;50.234;19.292;2023-02-14T14:39:26;100281.49;;;6.36;65.66
69127;BME280;56688;50.234;19.292;2023-02-14T14:41:56;100279.18;;;6.36;65.68
69127;BME280;56688;50.234;19.292;2023-02-14T14:44:34;100274.95;;;6.33;65.89
69127;BME280;56688;50.234;19.292;2023-02-14T14:47:01;100279.95;;;6.28;65.72
69127;BME280;56688;50.234;19.292;2023-02-14T14:49:28;100279.45;;;6.19;65.72
69127;BME280;56688;50.234;19.292;2023-02-14T14:51:57;100276.70;;;6.08;66.35
69127;BME280;56688;50.234;19.292;2023-02-14T14:54:24;100279.40;;;6.05;66.02
69127;BME280;56688;50.234;19.292;2023-02-14T14:56:55;100280.39;;;6.09;66.37
69127;BME280;56688;50.234;19.292;2023-02-14T15:01:51;100278.96;;;6.16;65.74
69127;BME280;56688;50.234;19.292;2023-02-14T15:06:58;100275.35;;;6.07;65.60
69127;BME280;56688;50.234;19.292;2023-02-14T15:09:42;100271.03;;;6.04;65.40
69127;BME280;56688;50.234;19.292;2023-02-14T15:12:18;100269.52;;;5.98;65.92
69127;BME280;56688;50.234;19.292;2023-02-14T15:15:06;100270.91;;;5.84;66.70
69127;BME280;56688;50.234;19.292;2023-02-14T15:17:37;100274.70;;;5.83;66.90
69127;BME280;56688;50.234;19.292;2023-02-14T15:20:09;100281.41;;;5.85;66.39
69127;BME280;56688;50.234;19.292;2023-02-14T15:25:09;100286.25;;;5.82;65.90
69127;BME280;56688;50.234;19.292;2023-02-14T15:27:39;100286.13;;;5.77;66.04
69127;BME280;56688;50.234;19.292;2023-02-14T15:30:23;100286.91;;;5.69;65.99
69127;BME280;56688;50.234;19.292;2023-02-14T15:32:52;100290.29;;;5.59;66.37